Time;durP1;ratioP1;P1;durP2;ratioP2;P2;SDS_P1;SDS_P2;PMS_P1;PMS_P2;Temp;Humidity;BMP_temperature;BMP_pressure;BME280_temperature;BME280_humidity;BME280_pressure;Samples;Min_cycle;Max_cycle;Signal;HPM_P1;HPM_P2
2020/12/07 00:01:11;;;;;;;7.47;4.75;;;;;;;0.30;92.76;94924.63;4937048;28;20053;-67
2020/12/07 00:03:37;;;;;;;8.00;5.03;;;;;;;0.33;92.63;94922.03;4944931;28;20467;-68
2020/12/07 00:06:02;;;;;;;8.23;4.88;;;;;;;0.30;92.78;94925.41;4944882;28;20529;-67
2020/12/07 00:08:27;;;;;;;8.35;4.63;;;;;;;0.35;92.58;94937.84;4942574;28;20043;-67
2020/12/07 00:10:53;;;;;;;10.27;5.53;;;;;;;0.29;92.16;94941.88;4945904;28;20047;-68
2020/12/07 00:13:18;;;;;;;9.45;5.55;;;;;;;0.19;92.09;94943.19;4940762;28;20043;-68
2020/12/07 00:15:44;;;;;;;8.32;5.40;;;;;;;0.29;92.64;94941.88;4946548;28;20109;-67
2020/12/07 00:18:10;;;;;;;9.55;4.95;;;;;;;0.35;92.29;94951.31;4941786;28;20130;-69
2020/12/07 00:20:36;;;;;;;10.02;5.38;;;;;;;0.30;92.40;94955.03;4946848;28;20039;-69
2020/12/07 00:23:01;;;;;;;8.82;4.90;;;;;;;0.27;92.45;94950.34;4946707;28;20049;-69
2020/12/07 00:25:27;;;;;;;8.65;5.03;;;;;;;0.24;91.99;94958.31;4946461;28;20053;-66
2020/12/07 00:27:52;;;;;;;10.10;5.63;;;;;;;0.19;92.39;94962.81;4958107;28;20138;-68
2020/12/07 00:30:17;;;;;;;8.38;4.45;;;;;;;0.23;92.75;94962.13;4951342;28;20043;-66
2020/12/07 00:32:43;;;;;;;9.77;5.30;;;;;;;0.21;92.10;94962.47;4946332;28;20075;-66
2020/12/07 00:35:08;;;;;;;9.20;5.10;;;;;;;0.14;92.92;94957.66;4941891;28;20074;-67
2020/12/07 00:37:34;;;;;;;10.02;5.68;;;;;;;0.03;92.85;94961.97;4944499;28;20496;-67
2020/12/07 00:39:59;;;;;;;8.75;5.35;;;;;;;-0.07;93.19;94952.47;4946540;28;20054;-67
2020/12/07 00:42:24;;;;;;;8.07;5.15;;;;;;;-0.07;93.33;94955.16;4941272;28;20047;-67
2020/12/07 00:44:50;;;;;;;9.65;5.57;;;;;;;0.05;93.09;94965.09;4956515;28;20054;-65
2020/12/07 00:47:15;;;;;;;9.90;5.85;;;;;;;0.00;93.17;94968.03;4963658;28;20110;-66
2020/12/07 00:49:40;;;;;;;7.75;4.95;;;;;;;0.00;93.13;94970.75;4947794;28;20385;-69
2020/12/07 00:52:07;;;;;;;13.40;6.47;;;;;;;-0.07;93.22;94975.91;4942029;28;20105;-66
2020/12/07 00:54:34;;;;;;;9.00;5.45;;;;;;;-0.11;93.71;94972.31;4947446;28;20161;-67
2020/12/07 00:57:00;;;;;;;8.38;5.55;;;;;;;-0.13;93.64;94975.34;4947059;28;20159;-68
2020/12/07 00:59:27;;;;;;;10.10;5.32;;;;;;;-0.14;93.98;94989.94;4941514;28;20677;-67
2020/12/07 01:01:54;;;;;;;10.63;5.60;;;;;;;-0.20;93.72;94993.97;4945670;28;20596;-66
2020/12/07 01:04:19;;;;;;;9.20;4.60;;;;;;;-0.17;94.00;94996.00;4939853;28;20505;-67
2020/12/07 01:06:45;;;;;;;9.27;5.05;;;;;;;-0.16;94.52;94992.19;4943720;28;20047;-67
2020/12/07 01:09:21;;;;;;;9.85;5.15;;;;;;;-0.17;94.81;94984.44;4939461;28;20264;-67
2020/12/07 01:11:56;;;;;;;11.63;6.22;;;;;;;-0.34;94.90;94985.47;4945517;28;20040;-67
2020/12/07 01:14:22;;;;;;;12.38;6.72;;;;;;;-0.47;95.19;94990.88;4938935;28;20690;-68
2020/12/07 01:16:49;;;;;;;10.65;6.45;;;;;;;-0.47;95.83;94993.56;4945572;28;20501;-68
2020/12/07 01:19:14;;;;;;;11.02;6.15;;;;;;;-0.45;95.76;95010.16;4939620;28;20039;-68
2020/12/07 01:21:40;;;;;;;10.18;6.03;;;;;;;-0.41;95.73;95016.41;4944319;28;20047;-66
2020/12/07 01:24:05;;;;;;;10.77;5.60;;;;;;;-0.49;95.87;95014.63;4937285;28;20134;-66
2020/12/07 01:26:31;;;;;;;11.88;6.63;;;;;;;-0.65;96.23;95014.53;4939457;28;20083;-67
2020/12/07 01:28:57;;;;;;;12.35;6.43;;;;;;;-0.63;96.59;95022.22;4944547;28;20065;-67
2020/12/07 01:31:23;;;;;;;13.52;6.78;;;;;;;-0.61;96.54;95018.09;4940127;28;21008;-66
2020/12/07 01:33:48;;;;;;;10.70;6.85;;;;;;;-0.59;96.16;95020.47;4946228;28;20039;-68
2020/12/07 01:36:14;;;;;;;14.70;7.70;;;;;;;-0.52;96.79;95022.56;4939933;28;20071;-66
2020/12/07 01:38:40;;;;;;;13.80;6.63;;;;;;;-0.52;96.63;95027.94;4944074;28;20429;-66
2020/12/07 01:41:05;;;;;;;15.18;7.65;;;;;;;-0.46;96.81;95024.72;4940008;28;20047;-66
2020/12/07 01:43:31;;;;;;;24.83;11.00;;;;;;;-0.35;96.45;95029.66;4943589;28;20039;-68
2020/12/07 01:45:57;;;;;;;16.55;8.73;;;;;;;-0.30;96.67;95026.72;4945600;28;20050;-68
2020/12/07 01:48:25;;;;;;;12.27;7.20;;;;;;;-0.32;96.28;95021.69;4940851;28;20158;-69
2020/12/07 01:50:51;;;;;;;9.98;6.20;;;;;;;-0.33;96.50;95028.19;4944775;28;20133;-68
2020/12/07 01:53:17;;;;;;;12.23;7.18;;;;;;;-0.36;96.32;95028.06;4935324;28;20047;-67
2020/12/07 01:55:44;;;;;;;14.00;6.55;;;;;;;-0.49;96.36;95027.28;4941556;28;20052;-66
2020/12/07 01:58:10;;;;;;;12.63;6.72;;;;;;;-0.51;96.30;95016.84;4938892;28;20134;-66
2020/12/07 02:00:36;;;;;;;13.38;7.20;;;;;;;-0.44;96.53;95035.13;4944725;28;20146;-67
2020/12/07 02:03:01;;;;;;;11.77;6.65;;;;;;;-0.42;95.96;95033.66;4944708;28;20512;-68
2020/12/07 02:05:27;;;;;;;12.25;7.03;;;;;;;-0.43;96.15;95029.44;4940279;28;20046;-66
2020/12/07 02:08:16;;;;;;;10.40;6.18;;;;;;;-0.51;96.36;95032.22;4941510;28;20075;-68
2020/12/07 02:10:42;;;;;;;13.05;7.13;;;;;;;-0.53;96.43;95034.47;4959189;28;20381;-67
2020/12/07 02:13:08;;;;;;;13.25;6.97;;;;;;;-0.63;96.53;95041.06;4927286;28;20035;-67
2020/12/07 02:15:34;;;;;;;14.57;7.55;;;;;;;-0.77;97.17;95041.41;4944940;28;20368;-68
2020/12/07 02:18:00;;;;;;;14.73;7.07;;;;;;;-0.88;98.17;95037.53;4937491;28;20040;-68
2020/12/07 02:20:26;;;;;;;16.27;8.05;;;;;;;-0.92;98.53;95044.72;4935865;28;20693;-69
2020/12/07 02:22:51;;;;;;;15.15;7.53;;;;;;;-0.98;99.30;95050.31;4942048;28;20095;-67
2020/12/07 02:25:21;;;;;;;16.92;6.60;;;;;;;-1.00;99.58;95054.44;4937520;28;20077;-65
2020/12/07 02:27:50;;;;;;;14.77;7.00;;;;;;;-1.01;99.88;95050.97;4942099;28;20062;-68
2020/12/07 02:30:19;;;;;;;13.60;7.03;;;;;;;-1.01;100.00;95050.97;4937982;28;20444;-67
2020/12/07 02:32:47;;;;;;;15.10;7.60;;;;;;;-1.01;100.00;95048.28;4944811;28;20098;-66
2020/12/07 02:35:13;;;;;;;16.10;7.25;;;;;;;-1.02;100.00;95048.63;4938485;28;20043;-67
2020/12/07 02:37:40;;;;;;;18.08;7.90;;;;;;;-1.01;100.00;95056.34;4942017;28;20050;-66
2020/12/07 02:40:06;;;;;;;15.80;7.93;;;;;;;-1.02;100.00;95051.31;4939174;28;20043;-67
2020/12/07 02:42:36;;;;;;;17.05;7.80;;;;;;;-1.02;100.00;95051.31;4943288;28;20055;-68
2020/12/07 02:45:05;;;;;;;15.02;7.45;;;;;;;-0.90;100.00;95062.09;4935988;28;20047;-69
2020/12/07 02:47:34;;;;;;;16.77;7.45;;;;;;;-0.84;100.00;95068.81;4959734;28;20043;-68
2020/12/07 02:49:59;;;;;;;17.13;7.07;;;;;;;-0.88;100.00;95067.91;4960696;28;20062;-66
2020/12/07 02:52:26;;;;;;;14.98;7.40;;;;;;;-0.88;100.00;95073.28;4946620;28;20532;-66
2020/12/07 02:54:56;;;;;;;14.38;7.05;;;;;;;-0.94;100.00;95065.78;4944360;28;20055;-66
2020/12/07 02:57:22;;;;;;;12.85;6.53;;;;;;;-0.91;100.00;95075.88;4949002;28;20050;-67
2020/12/07 02:59:49;;;;;;;14.50;7.32;;;;;;;-0.89;100.00;95071.72;4966650;28;20027;-67
2020/12/07 03:02:14;;;;;;;18.45;8.60;;;;;;;-0.84;100.00;95074.19;4937414;28;20150;-68
2020/12/07 03:04:40;;;;;;;29.15;11.43;;;;;;;-0.85;100.00;95067.22;4944959;28;20103;-65
2020/12/07 03:07:05;;;;;;;17.80;7.68;;;;;;;-0.82;100.00;95068.50;4945259;28;20440;-69
2020/12/07 03:09:31;;;;;;;15.43;7.72;;;;;;;-0.71;100.00;95071.53;4981880;28;20066;-67
2020/12/07 03:11:56;;;;;;;16.35;7.18;;;;;;;-0.53;100.00;95075.59;4981582;28;20058;-67
2020/12/07 03:14:22;;;;;;;14.00;7.20;;;;;;;-0.44;100.00;95075.47;4963749;28;20062;-65
2020/12/07 03:16:47;;;;;;;13.95;6.55;;;;;;;-0.54;99.87;95079.41;4962289;28;20053;-68
2020/12/07 03:19:12;;;;;;;12.32;6.43;;;;;;;-0.72;99.64;95068.06;4955824;28;20038;-67
2020/12/07 03:21:39;;;;;;;13.73;6.88;;;;;;;-0.81;99.60;95068.16;4942985;28;20696;-64
2020/12/07 03:24:07;;;;;;;13.10;6.75;;;;;;;-0.87;99.72;95068.69;4937637;28;20130;-66
2020/12/07 03:26:33;;;;;;;12.95;7.15;;;;;;;-0.86;99.99;95067.59;4951153;28;20101;-67
2020/12/07 03:28:59;;;;;;;13.23;6.80;;;;;;;-0.85;100.00;95072.59;4962181;28;20050;-65
2020/12/07 03:31:25;;;;;;;15.48;6.70;;;;;;;-0.77;100.00;95074.44;4956646;28;20046;-67
2020/12/07 03:33:50;;;;;;;14.05;7.25;;;;;;;-0.76;100.00;95077.91;4960754;28;20141;-67
2020/12/07 03:36:16;;;;;;;13.75;7.18;;;;;;;-0.69;99.99;95078.13;4956977;28;20125;-64
2020/12/07 03:38:41;;;;;;;14.65;7.25;;;;;;;-0.57;99.59;95081.97;4962513;28;20476;-67
2020/12/07 03:41:07;;;;;;;14.57;7.60;;;;;;;-0.47;99.80;95082.31;4957755;28;20081;-68
2020/12/07 03:43:32;;;;;;;13.43;7.15;;;;;;;-0.45;99.80;95076.59;4962426;28;20587;-65
2020/12/07 03:45:57;;;;;;;22.25;8.30;;;;;;;-0.57;99.29;95079.28;4962701;28;20496;-66
2020/12/07 03:48:23;;;;;;;15.27;7.40;;;;;;;-0.68;99.14;95082.41;4957501;28;20581;-64
2020/12/07 03:50:48;;;;;;;19.60;8.20;;;;;;;-0.77;99.35;95071.75;4962246;28;20076;-65
2020/12/07 03:53:14;;;;;;;14.63;7.60;;;;;;;-0.74;99.52;95074.88;4956626;28;20129;-66
2020/12/07 03:55:39;;;;;;;14.45;7.63;;;;;;;-0.69;99.51;95080.03;4962089;28;20047;-66
2020/12/07 03:58:05;;;;;;;18.25;9.48;;;;;;;-0.79;99.61;95071.28;4956056;28;20054;-68
2020/12/07 04:00:30;;;;;;;14.95;7.95;;;;;;;-0.82;99.93;95073.88;4962664;28;20047;-64
2020/12/07 04:02:56;;;;;;;21.90;10.10;;;;;;;-0.84;100.00;95062.66;4962433;28;20078;-67
2020/12/07 04:05:29;;;;;;;15.95;8.27;;;;;;;-0.82;100.00;95058.50;4957699;28;20984;-66
2020/12/07 04:07:54;;;;;;;16.58;8.35;;;;;;;-0.86;100.00;95057.63;4963333;28;20547;-65
2020/12/07 04:10:20;;;;;;;21.73;9.18;;;;;;;-0.88;100.00;95057.16;4957260;28;20121;-68
2020/12/07 04:12:45;;;;;;;18.42;8.27;;;;;;;-0.90;100.00;95058.59;4941495;28;20475;-65
2020/12/07 04:15:11;;;;;;;17.55;7.93;;;;;;;-0.84;100.00;95070.72;4938854;28;20055;-64
2020/12/07 04:17:36;;;;;;;16.83;7.80;;;;;;;-0.83;100.00;95067.72;4942686;28;20058;-65
2020/12/07 04:20:02;;;;;;;20.08;8.55;;;;;;;-0.80;100.00;95066.25;4941725;28;20176;-68
2020/12/07 04:22:28;;;;;;;15.77;7.28;;;;;;;-0.76;99.89;95061.75;4939450;28;20560;-65
2020/12/07 04:24:53;;;;;;;14.82;7.35;;;;;;;-0.83;99.84;95066.91;4942814;28;20043;-66
2020/12/07 04:27:18;;;;;;;15.68;7.45;;;;;;;-0.80;100.00;95071.63;4939014;28;20039;-65
2020/12/07 04:29:44;;;;;;;14.93;7.65;;;;;;;-0.70;99.96;95070.41;4957594;28;20135;-67
2020/12/07 04:32:09;;;;;;;15.60;8.32;;;;;;;-0.55;100.00;95067.06;4959849;28;20522;-67
2020/12/07 04:34:34;;;;;;;58.08;24.17;;;;;;;-0.58;99.89;95081.19;4961778;28;20327;-66
2020/12/07 04:37:00;;;;;;;16.30;8.63;;;;;;;-0.54;99.94;95078.59;4961099;28;20047;-68
2020/12/07 04:39:25;;;;;;;17.90;8.45;;;;;;;-0.52;99.46;95079.03;4957179;28;20051;-67
2020/12/07 04:41:51;;;;;;;15.85;7.47;;;;;;;-0.50;99.90;95074.16;4962286;28;20117;-68
2020/12/07 04:44:17;;;;;;;16.45;7.15;;;;;;;-0.45;99.91;95084.66;4958921;28;20055;-68
2020/12/07 04:46:45;;;;;;;15.05;7.82;;;;;;;-0.42;99.51;95084.78;4960932;28;20110;-67
2020/12/07 04:49:11;;;;;;;12.90;6.68;;;;;;;-0.50;99.46;95090.28;4958406;28;20050;-66
2020/12/07 04:51:37;;;;;;;14.32;7.35;;;;;;;-0.69;99.27;95090.81;4969299;28;20066;-66
2020/12/07 04:54:03;;;;;;;12.55;7.07;;;;;;;-0.93;100.00;95097.69;4965699;28;20633;-66
2020/12/07 04:56:31;;;;;;;14.30;7.55;;;;;;;-0.98;100.00;95105.97;4965148;28;20048;-67
2020/12/07 04:58:57;;;;;;;16.90;9.15;;;;;;;-0.98;100.00;95100.59;4966146;28;20049;-68
2020/12/07 05:01:22;;;;;;;16.33;8.07;;;;;;;-0.98;100.00;95103.28;4961220;28;20575;-69
2020/12/07 05:03:47;;;;;;;17.15;8.85;;;;;;;-0.99;100.00;95101.69;4965597;28;20439;-67
2020/12/07 05:06:18;;;;;;;23.33;8.98;;;;;;;-1.00;100.00;95100.13;4961706;28;20051;-66
2020/12/07 05:08:44;;;;;;;19.80;9.05;;;;;;;-1.04;100.00;95097.31;4969199;28;20050;-67
2020/12/07 05:11:10;;;;;;;20.38;9.15;;;;;;;-1.04;100.00;95105.38;4976755;28;20046;-66
2020/12/07 05:13:48;;;;;;;24.35;9.70;;;;;;;-1.00;100.00;95105.50;4981715;28;20050;-68
2020/12/07 05:16:13;;;;;;;21.85;9.63;;;;;;;-0.94;100.00;95122.97;4968709;28;20051;-66
2020/12/07 05:18:40;;;;;;;22.38;10.30;;;;;;;-0.88;100.00;95118.19;4965542;28;20084;-67
2020/12/07 05:21:06;;;;;;;24.27;11.15;;;;;;;-0.82;100.00;95119.56;4943226;28;20195;-66
2020/12/07 05:23:41;;;;;;;27.33;11.30;;;;;;;-0.79;100.00;95124.28;4961527;28;20116;-66
2020/12/07 05:26:09;;;;;;;29.15;13.30;;;;;;;-0.72;100.00;95116.47;4960453;28;20043;-66
2020/12/07 05:28:41;;;;;;;26.15;12.65;;;;;;;-0.78;100.00;95101.66;4966259;28;20065;-69
2020/12/07 05:31:06;;;;;;;23.05;10.25;;;;;;;-0.82;100.00;95096.16;4959681;28;20520;-66
2020/12/07 05:33:32;;;;;;;26.02;10.68;;;;;;;-0.86;100.00;95092.56;4965349;28;20047;-67
2020/12/07 05:35:58;;;;;;;22.08;9.32;;;;;;;-0.84;100.00;95093.00;4966006;28;20683;-67
2020/12/07 05:38:33;;;;;;;19.75;9.00;;;;;;;-0.74;100.00;95093.69;4960446;28;20620;-68
2020/12/07 05:41:01;;;;;;;21.30;9.05;;;;;;;-0.67;100.00;95099.31;4964613;28;20142;-69
2020/12/07 05:43:28;;;;;;;19.33;9.93;;;;;;;-0.73;100.00;95097.97;4959464;28;20058;-67
2020/12/07 05:45:57;;;;;;;21.42;10.27;;;;;;;-0.82;100.00;95106.13;4966811;28;20039;-67
2020/12/07 05:48:27;;;;;;;23.23;11.07;;;;;;;-0.83;100.00;95108.03;4958836;28;20090;-67
2020/12/07 05:50:55;;;;;;;21.25;10.02;;;;;;;-0.80;100.00;95112.72;4965386;28;20045;-66
2020/12/07 05:53:22;;;;;;;23.25;11.13;;;;;;;-0.77;100.00;95117.44;4959840;28;20043;-68
2020/12/07 05:55:48;;;;;;;20.95;11.00;;;;;;;-0.69;100.00;95121.16;4965443;28;20057;-67
2020/12/07 05:58:20;;;;;;;21.38;9.88;;;;;;;-0.61;100.00;95120.28;4957704;28;20396;-68
2020/12/07 06:00:47;;;;;;;21.88;11.07;;;;;;;-0.66;100.00;95112.44;4965496;28;20043;-67
2020/12/07 06:03:17;;;;;;;22.10;11.50;;;;;;;-0.66;100.00;95119.72;4960664;28;20117;-67
2020/12/07 06:05:44;;;;;;;25.10;11.25;;;;;;;-0.68;100.00;95125.44;4949326;28;20134;-67
2020/12/07 06:08:14;;;;;;;24.80;10.93;;;;;;;-0.74;100.00;95123.28;4954664;28;20049;-67
2020/12/07 06:10:58;;;;;;;23.45;10.40;;;;;;;-0.78;100.00;95126.63;4967527;28;20592;-66
2020/12/07 06:13:25;;;;;;;26.95;11.15;;;;;;;-0.77;100.00;95128.19;4960795;28;20254;-64
2020/12/07 06:15:52;;;;;;;23.92;10.60;;;;;;;-0.78;100.00;95131.22;4966820;28;20050;-65
2020/12/07 06:18:28;;;;;;;26.27;11.45;;;;;;;-0.78;100.00;95126.63;4961512;28;20043;-66
2020/12/07 06:21:10;;;;;;;31.10;11.25;;;;;;;-0.77;100.00;95120.13;4942102;28;20092;-66
2020/12/07 06:23:39;;;;;;;25.23;10.52;;;;;;;-0.75;100.00;95127.09;4946752;28;20051;-68
2020/12/07 06:26:07;;;;;;;24.52;10.25;;;;;;;-0.70;100.00;95130.34;4941050;28;20039;-65
2020/12/07 06:28:41;;;;;;;23.65;11.02;;;;;;;-0.68;100.00;95136.19;4944464;28;20050;-66
2020/12/07 06:31:09;;;;;;;25.08;10.65;;;;;;;-0.73;100.00;95140.97;4940567;28;20047;-65
2020/12/07 06:33:54;;;;;;;25.83;10.32;;;;;;;-0.79;100.00;95140.41;4946192;28;20039;-68
2020/12/07 06:36:25;;;;;;;31.33;11.90;;;;;;;-0.79;100.00;95146.56;4954406;28;20051;-67
2020/12/07 06:38:50;;;;;;;27.45;11.10;;;;;;;-0.74;100.00;95152.84;4965884;28;20553;-68
2020/12/07 06:41:36;;;;;;;26.88;12.00;;;;;;;-0.78;100.00;95150.03;4960654;28;20046;-68
2020/12/07 06:44:05;;;;;;;31.42;13.27;;;;;;;-0.74;100.00;95158.22;4965006;28;20043;-68
2020/12/07 06:46:55;;;;;;;30.33;11.97;;;;;;;-0.65;100.00;95156.22;4964887;28;20039;-66
2020/12/07 06:49:48;;;;;;;29.77;12.50;;;;;;;-0.51;100.00;95145.97;4961316;28;20050;-68
2020/12/07 06:52:16;;;;;;;25.10;11.50;;;;;;;-0.29;100.00;95150.16;4958288;28;20046;-68
2020/12/07 06:57:30;;;;;;;30.15;12.25;;;;;;;-0.07;100.00;95158.94;4962620;28;20428;-68
2020/12/07 07:00:06;;;;;;;27.73;12.48;;;;;;;0.01;100.00;95163.41;4965949;28;20101;-68
2020/12/07 07:02:31;;;;;;;24.40;10.63;;;;;;;0.08;100.00;95171.69;4963834;28;20043;-67
2020/12/07 07:04:59;;;;;;;19.40;9.90;;;;;;;0.16;100.00;95170.81;4965078;28;20073;-67
2020/12/07 07:07:26;;;;;;;20.20;11.00;;;;;;;0.22;100.00;95178.66;4959685;28;20855;-68
2020/12/07 07:09:52;;;;;;;19.23;10.15;;;;;;;0.27;99.39;95187.31;4964518;28;20074;-67
2020/12/07 07:12:19;;;;;;;17.92;10.85;;;;;;;-0.02;98.49;95188.28;4957772;28;20081;-67
2020/12/07 07:14:47;;;;;;;17.27;9.88;;;;;;;-0.08;98.58;95178.88;4963334;28;20539;-67
2020/12/07 07:17:13;;;;;;;19.88;9.48;;;;;;;0.11;98.57;95189.06;4939824;28;20043;-67
2020/12/07 07:19:38;;;;;;;20.27;9.07;;;;;;;0.24;97.52;95189.88;4950440;28;20046;-67
2020/12/07 07:22:04;;;;;;;17.08;8.90;;;;;;;0.29;97.09;95189.63;4942480;28;20039;-67
2020/12/07 07:24:39;;;;;;;17.33;9.02;;;;;;;0.17;97.00;95193.91;4955295;28;20116;-66
2020/12/07 07:27:55;;;;;;;17.20;9.68;;;;;;;0.30;96.54;95193.91;4958547;28;20039;-67
2020/12/07 07:29:51;;;;;;;16.50;9.02;;;;;;;0.38;96.60;95195.72;4964357;28;20050;-67
2020/12/07 07:32:17;;;;;;;20.13;10.25;;;;;;;0.47;95.87;95188.31;4952821;28;20043;-67
2020/12/07 07:34:51;;;;;;;23.45;10.38;;;;;;;0.55;94.94;95187.38;4942698;28;20506;-66
2020/12/07 07:37:17;;;;;;;19.83;9.43;;;;;;;0.65;94.42;95186.16;4939928;28;20051;-66
2020/12/07 07:39:47;;;;;;;17.88;9.57;;;;;;;0.72;94.33;95185.56;4944803;28;20050;-68
2020/12/07 07:42:17;;;;;;;16.85;8.90;;;;;;;0.77;93.35;95174.53;4934003;28;20133;-67
2020/12/07 07:44:47;;;;;;;17.67;9.30;;;;;;;0.86;93.01;95177.09;4940021;28;20055;-68
2020/12/07 07:47:20;;;;;;;18.92;9.77;;;;;;;0.92;92.37;95167.69;4939621;28;20472;-67
2020/12/07 08:17:23;;;;;;;18.27;9.85;;;;;;;-0.15;95.73;95235.16;4936050;28;20136;-68
2020/12/07 08:19:51;;;;;;;20.23;10.88;;;;;;;-0.18;96.38;95244.69;4944155;28;20043;-68
2020/12/07 08:22:18;;;;;;;37.53;20.45;;;;;;;-0.42;97.46;95248.09;4932387;28;20143;-68
2020/12/07 08:24:56;;;;;;;24.10;12.23;;;;;;;-0.33;97.42;95251.47;4944359;28;20055;-66
2020/12/07 08:27:22;;;;;;;23.88;14.00;;;;;;;-0.24;97.28;95249.47;4941089;28;20043;-67
2020/12/07 08:29:47;;;;;;;23.13;11.98;;;;;;;-0.07;97.01;95248.53;4937475;28;20044;-67
2020/12/07 08:32:22;;;;;;;26.67;13.70;;;;;;;0.10;97.40;95246.75;4937698;28;20053;-67
2020/12/07 08:34:48;;;;;;;23.63;13.25;;;;;;;0.40;97.53;95241.16;4948995;28;20039;-65
2020/12/07 08:37:13;;;;;;;20.65;11.13;;;;;;;0.64;96.04;95243.84;4958323;28;20034;-67
2020/12/07 08:39:39;;;;;;;19.50;10.20;;;;;;;0.91;94.45;95245.03;4964210;28;20431;-67
2020/12/07 08:42:04;;;;;;;15.88;9.23;;;;;;;1.09;93.35;95240.19;4946392;28;20055;-67
2020/12/07 08:44:30;;;;;;;21.73;9.38;;;;;;;1.12;91.82;95238.72;4957485;28;20051;-68
2020/12/07 08:46:55;;;;;;;16.75;9.98;;;;;;;1.24;91.29;95238.69;4948293;28;20062;-68
2020/12/07 08:49:21;;;;;;;13.18;8.77;;;;;;;1.56;89.83;95236.09;4941360;28;20210;-66
2020/12/07 08:51:46;;;;;;;14.63;8.40;;;;;;;1.74;88.67;95233.88;4943813;28;20516;-65
2020/12/07 08:54:11;;;;;;;15.20;8.23;;;;;;;1.84;88.48;95230.69;4941003;28;20051;-67
2020/12/07 08:56:37;;;;;;;12.88;7.57;;;;;;;2.01;87.03;95234.94;4946529;28;20035;-66
2020/12/07 08:59:02;;;;;;;16.42;7.13;;;;;;;2.23;86.38;95230.91;4942600;28;20035;-64
2020/12/07 09:01:27;;;;;;;13.00;7.88;;;;;;;2.53;86.06;95233.13;4941325;28;20498;-66
2020/12/07 09:03:53;;;;;;;11.00;6.53;;;;;;;3.10;84.11;95233.63;4947274;28;20043;-66
2020/12/07 09:06:20;;;;;;;11.68;7.15;;;;;;;3.67;79.42;95239.41;4940168;28;20046;-66
2020/12/07 09:08:45;;;;;;;11.57;7.15;;;;;;;3.85;79.11;95238.97;4944658;28;20055;-66
2020/12/07 09:11:15;;;;;;;11.15;6.55;;;;;;;4.01;78.70;95236.94;4941498;28;20050;-66
2020/12/07 09:13:41;;;;;;;13.00;7.53;;;;;;;4.23;77.96;95232.69;4945338;28;20051;-67
2020/12/07 09:16:07;;;;;;;15.32;7.50;;;;;;;4.87;76.85;95226.72;4937152;28;20481;-67
2020/12/07 09:18:32;;;;;;;20.05;8.48;;;;;;;5.52;74.46;95220.97;4944706;28;20047;-67
2020/12/07 09:20:58;;;;;;;15.25;8.55;;;;;;;5.70;72.94;95226.63;4946077;28;20051;-67
2020/12/07 09:23:25;;;;;;;14.93;7.82;;;;;;;5.70;70.87;95234.00;4939887;28;20595;-68
2020/12/07 09:25:51;;;;;;;14.80;7.47;;;;;;;5.90;72.70;95231.88;4957278;28;20134;-67
2020/12/07 09:28:17;;;;;;;13.27;6.28;;;;;;;5.62;71.76;95238.56;4930761;28;20126;-67
2020/12/07 09:30:43;;;;;;;12.68;6.65;;;;;;;5.10;74.36;95240.22;4941868;28;20449;-67
2020/12/07 09:33:08;;;;;;;15.00;7.47;;;;;;;5.27;74.86;95247.81;4940551;28;20047;-68
2020/12/07 09:35:34;;;;;;;12.07;7.22;;;;;;;5.12;73.80;95243.34;4941561;28;20051;-68
2020/12/07 09:38:00;;;;;;;14.55;8.27;;;;;;;5.74;74.17;95248.38;4958192;28;20044;-68
2020/12/07 09:40:26;;;;;;;12.02;6.93;;;;;;;6.01;70.26;95235.50;4958469;28;20396;-69
2020/12/07 09:42:51;;;;;;;15.25;8.18;;;;;;;6.35;71.17;95226.53;4940518;28;20130;-68
2020/12/07 09:45:16;;;;;;;14.90;8.38;;;;;;;6.27;69.52;95231.91;4939645;28;20043;-68
2020/12/07 09:47:42;;;;;;;15.50;6.63;;;;;;;6.21;70.46;95230.69;4962186;28;20110;-68
2020/12/07 09:50:08;;;;;;;18.20;8.73;;;;;;;5.77;70.35;95233.31;4949631;28;20046;-68
2020/12/07 09:52:35;;;;;;;14.82;8.13;;;;;;;5.09;73.47;95249.50;4944292;28;20481;-68
2020/12/07 09:55:00;;;;;;;9.48;6.63;;;;;;;5.28;73.94;95249.38;4945605;28;20047;-67
2020/12/07 09:57:26;;;;;;;11.98;6.82;;;;;;;5.38;73.76;95245.25;4940054;28;20125;-67
2020/12/07 09:59:51;;;;;;;10.93;6.80;;;;;;;5.46;73.93;95248.84;4944552;28;20043;-67
2020/12/07 10:02:18;;;;;;;12.73;7.13;;;;;;;5.57;73.37;95248.97;4939161;28;20580;-68
2020/12/07 10:04:45;;;;;;;12.50;7.30;;;;;;;5.41;73.27;95246.44;4948965;28;20043;-67
2020/12/07 10:07:11;;;;;;;12.50;7.40;;;;;;;5.39;73.48;95254.19;4940392;28;20120;-67
2020/12/07 10:09:36;;;;;;;12.50;7.63;;;;;;;5.31;73.87;95254.09;4945657;28;20059;-66
2020/12/07 10:12:02;;;;;;;16.98;7.65;;;;;;;5.10;73.72;95256.50;4943059;28;20035;-68
2020/12/07 10:14:28;;;;;;;28.90;10.82;;;;;;;4.89;73.94;95249.59;4936762;28;20497;-68
2020/12/07 10:16:53;;;;;;;20.27;8.68;;;;;;;4.61;75.76;95247.25;4944770;28;20050;-68
2020/12/07 10:19:19;;;;;;;23.30;10.50;;;;;;;4.48;76.22;95254.00;4936629;28;20508;-68
2020/12/07 10:21:44;;;;;;;23.83;9.93;;;;;;;4.44;77.13;95245.03;4944386;28;20058;-68
2020/12/07 10:24:09;;;;;;;19.02;8.73;;;;;;;4.46;77.53;95248.16;4938697;28;20039;-68
2020/12/07 10:26:35;;;;;;;17.27;8.20;;;;;;;4.47;77.83;95239.66;4943977;28;20420;-68
2020/12/07 10:29:01;;;;;;;15.73;7.93;;;;;;;4.36;77.17;95238.72;4944600;28;20039;-68
2020/12/07 10:31:26;;;;;;;13.27;6.90;;;;;;;4.34;78.26;95249.13;4937904;28;20097;-67
2020/12/07 10:33:53;;;;;;;16.98;6.75;;;;;;;4.29;78.93;95244.78;4943060;28;20075;-67
2020/12/07 10:36:19;;;;;;;19.58;7.55;;;;;;;4.22;78.69;95239.25;4939472;28;20465;-67
2020/12/07 10:38:46;;;;;;;11.45;6.90;;;;;;;4.17;79.66;95228.72;4942121;28;20063;-67
2020/12/07 10:41:13;;;;;;;9.70;6.30;;;;;;;4.18;79.28;95233.78;4939781;28;20052;-67
2020/12/07 10:43:40;;;;;;;16.10;6.28;;;;;;;4.05;78.89;95237.78;4953188;28;20053;-67
2020/12/07 10:46:06;;;;;;;10.23;5.75;;;;;;;4.01;78.91;95234.22;4959344;28;20055;-66
2020/12/07 10:48:32;;;;;;;8.55;4.90;;;;;;;4.06;79.08;95231.22;4937458;28;20048;-67
2020/12/07 10:50:57;;;;;;;9.00;5.22;;;;;;;4.16;78.49;95232.56;4911600;29;20079;-68
2020/12/07 10:53:24;;;;;;;12.05;5.05;;;;;;;3.91;79.19;95240.25;4906863;28;20043;-68
2020/12/07 10:55:50;;;;;;;9.10;6.10;;;;;;;3.95;79.15;95241.88;4930148;28;20102;-68
2020/12/07 10:58:15;;;;;;;14.50;11.30;;;;;;;3.04;82.26;95246.66;4938288;28;20035;-66
2020/12/07 11:00:41;;;;;;;13.40;9.70;;;;;;;2.28;86.70;95246.03;4943200;28;20043;-68
2020/12/07 11:03:07;;;;;;;10.70;6.72;;;;;;;2.67;86.25;95249.69;4938233;28;20560;-68
2020/12/07 11:05:33;;;;;;;13.00;6.28;;;;;;;3.23;84.19;95250.53;4938801;28;20632;-66
2020/12/07 11:07:59;;;;;;;9.40;6.00;;;;;;;3.69;82.07;95241.75;4943587;28;20111;-67
2020/12/07 11:10:24;;;;;;;7.32;4.85;;;;;;;3.61;79.77;95243.56;4940086;28;20653;-66
2020/12/07 11:12:58;;;;;;;7.82;4.78;;;;;;;3.85;79.27;95245.16;4943829;28;20039;-68
2020/12/07 11:15:24;;;;;;;7.97;4.28;;;;;;;3.94;78.61;95248.44;4937089;28;20097;-67
2020/12/07 11:17:49;;;;;;;8.63;4.65;;;;;;;3.98;78.85;95252.00;4953549;28;20043;-68
2020/12/07 11:20:15;;;;;;;9.13;4.75;;;;;;;4.23;78.87;95254.34;4957080;28;20046;-65
2020/12/07 11:22:40;;;;;;;12.50;8.10;;;;;;;3.68;78.84;95256.47;4960186;28;20050;-68
2020/12/07 11:25:06;;;;;;;6.55;4.53;;;;;;;2.81;81.84;95261.94;4938219;28;20143;-68
2020/12/07 11:27:31;;;;;;;10.25;5.43;;;;;;;2.64;83.17;95268.53;4943239;28;20058;-68
2020/12/07 11:29:56;;;;;;;11.95;8.30;;;;;;;2.58;84.22;95264.53;4944628;28;20519;-67
2020/12/07 11:32:22;;;;;;;7.88;5.38;;;;;;;2.67;83.71;95260.50;4939718;28;20058;-66
2020/12/07 11:34:47;;;;;;;6.75;4.75;;;;;;;2.83;83.38;95265.09;4944372;28;20043;-68
2020/12/07 11:37:12;;;;;;;11.73;6.32;;;;;;;3.28;83.35;95250.25;4933681;28;20039;-67
2020/12/07 11:44:47;;;;;;;8.25;4.50;;;;;;;4.33;78.07;95242.91;4944653;28;20501;-68
2020/12/07 11:47:14;;;;;;;6.18;4.05;;;;;;;4.45;78.18;95244.69;4948507;28;20035;-68
2020/12/07 11:49:39;;;;;;;5.90;3.83;;;;;;;4.48;78.09;95246.66;4945174;28;20053;-68
2020/12/07 11:52:06;;;;;;;6.15;3.88;;;;;;;4.35;76.73;95250.69;4956805;28;20107;-66
2020/12/07 11:54:32;;;;;;;7.60;4.40;;;;;;;3.72;78.44;95244.53;4951941;28;20036;-67
2020/12/07 11:57:04;;;;;;;7.72;4.93;;;;;;;2.78;83.01;95243.75;4945122;28;20043;-67
2020/12/07 11:59:30;;;;;;;9.52;5.00;;;;;;;2.89;83.28;95250.16;4959718;28;20493;-67
2020/12/07 12:01:55;;;;;;;7.80;5.55;;;;;;;2.87;83.13;95238.94;4944437;28;20087;-67